Список аэропортов
Фактическая погода:

18 октября, 09:50
Температура: +4°C (+4.0*)
Ветер: 0
Давление: *765 мм
несуществ. обл. дымка
Время (МСК)Темп. СВетерВлажностьДавлениеОблачностьОсадки
09:00+4ЮЗ, 1 м/с100%1021 гПаоблачно
10:00+5Ю, 1 м/с97%1021 гПаоблачно
11:00+8ЮЗ, 1 м/с91%1021 гПаоблачно
12:00+12З, 1 м/с84%1020 гПаоблачно
13:00+14С, 1 м/с74%1020 гПаясно
14:00+17СВ, 1 м/с67%1019 гПаоблачно
15:00+18СВ, 1 м/с61%1019 гПаясно
16:00+18СВ, 2 м/с58%1019 гПаясно
17:00+19СВ, 2 м/с57%1019 гПаясно
18:00+18СВ, 2 м/с55%1019 гПаясно
19:00+16СВ, 1 м/с70%1019 гПас прояснениями
20:00+14СВ, 1 м/с81%1020 гПаоблачно
21:00+12С, 1 м/с87%1021 гПаоблачно
22:00+11С, 1 м/с91%1021 гПаоблачно
23:00+10С, 1 м/с94%1021 гПаясно
19 октября
00:00+9С, 1 м/с95%1022 гПаясно
01:00+8СЗ, 1 м/с96%1022 гПаясно
02:00+8С, 1 м/с97%1022 гПаясно
03:00+6С, 1 м/с99%1023 гПаясно
04:00+6СВ, 1 м/с100%1023 гПамалооблачно
05:00+5СВ, 1 м/с100%1023 гПаоблачно
06:00+5СВ, 1 м/с100%1023 гПаоблачно
07:00+4В, 1 м/с100%1023 гПаоблачно
08:00+4ЮВ, 1 м/с100%1023 гПаоблачно
09:00+3Штиль 100%1024 гПаоблачно
10:00+6СВ, 1 м/с99%1024 гПаоблачно
11:00+9СВ, 1 м/с91%1024 гПаясно
12:00+12СВ, 2 м/с84%1023 гПаясно
13:00+14В, 2 м/с75%1023 гПаясно
14:00+16СВ, 2 м/с70%1022 гПаясно
15:00+17СВ, 2 м/с65%1022 гПаясно
16:00+18СВ, 2 м/с61%1022 гПаясно
17:00+18СВ, 3 м/с59%1022 гПаясно
18:00+17СВ, 3 м/с59%1022 гПаясно
19:00+15СВ, 2 м/с69%1022 гПаясно
20:00+13С, 2 м/с81%1023 гПаясно
21:00+11С, 1 м/с90%1024 гПаясно
22:00+10С, 1 м/с95%1025 гПаясно
23:00+9С, 1 м/с98%1025 гПаясно
20 октября
00:00+8СЗ, 1 м/с98%1026 гПаясно
01:00+7СВ, 1 м/с99%1026 гПаясно
02:00+6Штиль 100%1027 гПас прояснениями
03:00+6Штиль 100%1027 гПаоблачно
04:00+5Штиль 100%1027 гПаоблачно
05:00+6ЮЗ, 1 м/с100%1028 гПаоблачно
06:00+6ЮЗ, 1 м/с100%1028 гПаоблачно
07:00+6Ю, 1 м/с100%1028 гПаоблачно
08:00+5Ю, 1 м/с100%1029 гПаоблачно
09:00+5Ю, 1 м/с100%1029 гПаоблачно